createdAt,value
2023-03-29T00:01:00.472Z,101225.53
2023-03-29T00:03:28.988Z,101229.88
2023-03-29T00:06:03.818Z,101226.28
2023-03-29T00:08:40.286Z,101231.63
2023-03-29T00:11:07.890Z,101238.16
2023-03-29T00:13:35.297Z,101238.44
2023-03-29T00:16:02.696Z,101245.53
2023-03-29T00:18:29.476Z,101246.94
2023-03-29T00:20:57.632Z,101243.84
2023-03-29T00:23:25.502Z,101252.53
2023-03-29T00:25:56.420Z,101244.78
2023-03-29T00:28:23.788Z,101248.19
2023-03-29T00:30:53.472Z,101245.94
2023-03-29T00:33:21.150Z,101238.94
2023-03-29T00:35:48.878Z,101244.91
2023-03-29T00:38:18.614Z,101244.63
2023-03-29T00:40:47.092Z,101230.81
2023-03-29T00:43:17.529Z,101231.50
2023-03-29T00:45:44.619Z,101231.97
2023-03-29T00:48:16.004Z,101228.44
2023-03-29T00:50:59.969Z,101225.22
2023-03-29T00:53:39.728Z,101218.50
2023-03-29T00:56:14.313Z,101217.44
2023-03-29T00:59:10.198Z,101210.63
2023-03-29T01:01:45.779Z,101213.91
2023-03-29T01:04:42.887Z,101208.16
2023-03-29T01:07:18.623Z,101207.16
2023-03-29T01:09:51.062Z,101210.13
2023-03-29T01:12:24.255Z,101199.69
2023-03-29T01:15:02.254Z,101191.91
2023-03-29T01:17:31.894Z,101190.22
2023-03-29T01:20:10.685Z,101177.22
2023-03-29T01:23:01.010Z,101182.22
2023-03-29T01:25:36.999Z,101185.44
2023-03-29T01:28:12.058Z,101188.19
2023-03-29T01:31:02.011Z,101185.75
2023-03-29T01:33:34.500Z,101187.84
2023-03-29T01:36:11.904Z,101195.41
2023-03-29T01:39:07.291Z,101189.72
2023-03-29T01:41:57.445Z,101186.88
2023-03-29T01:44:42.760Z,101177.97
2023-03-29T01:47:31.877Z,101185.06
2023-03-29T01:50:16.425Z,101192.91
2023-03-29T01:52:47.121Z,101190.44
2023-03-29T01:55:20.310Z,101194.78
2023-03-29T01:57:48.682Z,101182.06
2023-03-29T02:00:24.781Z,101188.44
2023-03-29T02:02:55.486Z,101191.25
2023-03-29T02:05:24.714Z,101195.81
2023-03-29T02:07:53.026Z,101205.50
2023-03-29T02:10:22.044Z,101203.94
2023-03-29T02:12:49.674Z,101211.66
2023-03-29T02:15:19.281Z,101218.97
2023-03-29T02:17:47.802Z,101217.69
2023-03-29T02:20:24.631Z,101214.81
2023-03-29T02:23:21.404Z,101220.91
2023-03-29T02:25:57.157Z,101216.16
2023-03-29T02:28:25.769Z,101221.41
2023-03-29T02:31:21.730Z,101231.78
2023-03-29T02:33:48.784Z,101227.69
2023-03-29T02:36:25.088Z,101229.03
2023-03-29T02:38:54.376Z,101234.81
2023-03-29T02:41:23.910Z,101231.63
2023-03-29T02:43:51.647Z,101235.25
2023-03-29T02:46:19.777Z,101230.38
2023-03-29T02:48:50.563Z,101230.00
2023-03-29T02:51:25.122Z,101234.97
2023-03-29T02:54:16.426Z,101240.09
2023-03-29T02:56:46.113Z,101252.75
2023-03-29T02:59:14.283Z,101248.78
2023-03-29T03:01:44.218Z,101249.09
2023-03-29T03:04:12.466Z,101254.13
2023-03-29T03:06:42.113Z,101255.00
2023-03-29T03:09:10.027Z,101261.56
2023-03-29T03:11:36.802Z,101263.94
2023-03-29T03:14:03.686Z,101267.59
2023-03-29T03:16:30.449Z,101270.59
2023-03-29T03:18:57.363Z,101267.50
2023-03-29T03:21:24.663Z,101271.38
2023-03-29T03:23:52.853Z,101268.69
2023-03-29T03:26:21.653Z,101272.50
2023-03-29T03:28:48.652Z,101279.84
2023-03-29T03:31:15.698Z,101292.41
2023-03-29T03:33:46.557Z,101290.63
2023-03-29T03:36:14.215Z,101297.97
2023-03-29T03:38:44.283Z,101293.28
2023-03-29T03:41:11.203Z,101295.50
2023-03-29T03:43:38.358Z,101300.06
2023-03-29T03:46:05.627Z,101302.28
2023-03-29T03:48:32.584Z,101303.66
2023-03-29T03:50:59.345Z,101304.31
2023-03-29T03:53:27.552Z,101313.56
2023-03-29T03:55:58.293Z,101311.97
2023-03-29T03:58:25.151Z,101318.22
2023-03-29T04:00:52.137Z,101311.34
2023-03-29T04:03:19.227Z,101319.34
2023-03-29T04:05:47.262Z,101317.44
2023-03-29T04:08:15.107Z,101317.91
2023-03-29T04:10:42.210Z,101320.22
2023-03-29T04:13:09.321Z,101326.78
2023-03-29T04:15:39.018Z,101323.53
2023-03-29T04:18:07.624Z,101325.00
2023-03-29T04:20:35.327Z,101319.66
2023-03-29T04:23:02.602Z,101323.38
2023-03-29T04:25:30.028Z,101325.34
2023-03-29T04:27:56.994Z,101321.25
2023-03-29T04:30:24.775Z,101320.34
2023-03-29T04:32:52.184Z,101311.31
2023-03-29T04:35:19.280Z,101318.63
2023-03-29T04:37:46.214Z,101314.84
2023-03-29T04:40:14.670Z,101317.03
2023-03-29T04:42:46.037Z,101318.72
2023-03-29T04:45:14.152Z,101315.47
2023-03-29T04:47:42.204Z,101316.63
2023-03-29T04:50:09.719Z,101310.13
2023-03-29T04:52:36.702Z,101320.91
2023-03-29T04:55:05.313Z,101322.88
2023-03-29T04:57:35.793Z,101322.22
2023-03-29T05:00:08.485Z,101318.72
2023-03-29T05:02:35.584Z,101313.09
2023-03-29T05:05:02.599Z,101310.47
2023-03-29T05:07:29.918Z,101320.63
2023-03-29T05:09:57.063Z,101323.41
2023-03-29T05:12:24.130Z,101320.31
2023-03-29T05:14:51.183Z,101322.28
2023-03-29T05:17:18.106Z,101329.34
2023-03-29T05:19:44.960Z,101327.59
2023-03-29T05:22:11.791Z,101329.22
2023-03-29T05:24:40.469Z,101329.19
2023-03-29T05:27:08.353Z,101326.53
2023-03-29T05:29:35.214Z,101325.59
2023-03-29T05:32:02.512Z,101325.75
2023-03-29T05:34:31.533Z,101330.19
2023-03-29T05:36:59.654Z,101331.09
2023-03-29T05:39:26.709Z,101331.59
2023-03-29T05:41:55.025Z,101336.81
2023-03-29T05:44:22.038Z,101328.84
2023-03-29T05:46:50.872Z,101331.09
2023-03-29T05:49:18.108Z,101332.19
2023-03-29T05:51:47.717Z,101339.88
2023-03-29T05:54:16.015Z,101331.88
2023-03-29T05:56:42.911Z,101326.53
2023-03-29T05:59:09.917Z,101323.63
2023-03-29T06:01:37.986Z,101330.09
2023-03-29T06:04:06.627Z,101328.56
2023-03-29T06:06:35.980Z,101318.81
2023-03-29T06:09:03.228Z,101324.91
2023-03-29T06:11:31.764Z,101318.69
2023-03-29T06:13:59.318Z,101323.94
2023-03-29T06:16:26.272Z,101333.88
2023-03-29T06:18:53.463Z,101333.25
2023-03-29T06:21:22.440Z,101331.69
2023-03-29T06:23:50.470Z,101327.03
2023-03-29T06:26:17.978Z,101324.56
2023-03-29T06:28:45.661Z,101330.31
2023-03-29T06:31:13.501Z,101324.34
2023-03-29T06:33:43.240Z,101330.56
2023-03-29T06:36:12.152Z,101318.81
2023-03-29T06:38:39.927Z,101306.03
2023-03-29T06:41:08.733Z,101314.88
2023-03-29T06:43:35.605Z,101326.06
2023-03-29T06:46:02.783Z,101331.44
2023-03-29T06:48:30.247Z,101328.22
2023-03-29T06:50:57.174Z,101333.78
2023-03-29T06:53:24.045Z,101334.44
2023-03-29T06:55:52.306Z,101333.94
2023-03-29T06:58:19.856Z,101346.22
2023-03-29T07:00:46.881Z,101339.00
2023-03-29T07:03:20.265Z,101353.38
2023-03-29T07:05:47.977Z,101342.59
2023-03-29T07:08:16.613Z,101344.94
2023-03-29T07:10:49.088Z,101346.81
2023-03-29T07:13:15.913Z,101358.94
2023-03-29T07:15:43.993Z,101354.84
2023-03-29T07:18:12.852Z,101362.81
2023-03-29T07:20:41.923Z,101368.44
2023-03-29T07:23:11.489Z,101371.13
2023-03-29T07:25:39.613Z,101365.78
2023-03-29T07:28:07.778Z,101371.41
2023-03-29T07:30:34.718Z,101375.72
2023-03-29T07:33:01.617Z,101378.78
2023-03-29T07:35:29.236Z,101377.38
2023-03-29T07:37:56.615Z,101374.75
2023-03-29T07:40:24.454Z,101380.69
2023-03-29T07:42:55.557Z,101386.56
2023-03-29T07:45:26.928Z,101381.75
2023-03-29T07:47:59.738Z,101378.06
2023-03-29T07:50:27.785Z,101385.56
2023-03-29T07:52:55.246Z,101384.25
2023-03-29T07:55:22.351Z,101389.31
2023-03-29T07:57:49.803Z,101392.44
2023-03-29T08:00:17.639Z,101386.16
2023-03-29T08:02:46.049Z,101394.28
2023-03-29T08:05:17.536Z,101381.09
2023-03-29T08:07:47.959Z,101384.00
2023-03-29T08:10:18.191Z,101382.84
2023-03-29T08:12:46.689Z,101359.28
2023-03-29T08:15:14.471Z,101366.00
2023-03-29T08:17:41.951Z,101364.03
2023-03-29T08:20:12.360Z,101363.28
2023-03-29T08:22:39.538Z,101363.19
2023-03-29T08:25:07.475Z,101354.63
2023-03-29T08:27:34.946Z,101351.34
2023-03-29T08:30:01.745Z,101352.94
2023-03-29T08:32:28.759Z,101352.84
2023-03-29T08:34:55.793Z,101360.50
2023-03-29T08:37:24.692Z,101355.16
2023-03-29T08:39:51.832Z,101353.34
2023-03-29T08:42:41.145Z,101350.09
2023-03-29T08:45:23.071Z,101344.28
2023-03-29T08:48:17.524Z,101348.59
2023-03-29T08:50:49.506Z,101337.88
2023-03-29T08:53:29.686Z,101344.25
2023-03-29T08:55:59.853Z,101342.16
2023-03-29T08:58:32.573Z,101340.84
2023-03-29T09:01:06.258Z,101337.22
2023-03-29T09:04:00.227Z,101332.50
2023-03-29T09:06:27.088Z,101329.41
2023-03-29T09:08:53.902Z,101326.75
2023-03-29T09:11:20.834Z,101329.94
2023-03-29T09:14:15.027Z,101329.16
2023-03-29T09:17:11.775Z,101319.94
2023-03-29T09:20:21.904Z,101313.06
2023-03-29T09:23:22.376Z,101301.78
2023-03-29T09:26:16.205Z,101296.88
2023-03-29T09:29:04.967Z,101310.13
2023-03-29T09:31:42.801Z,101301.28
2023-03-29T09:34:15.954Z,101303.16
2023-03-29T09:37:12.062Z,101296.56
2023-03-29T09:39:41.131Z,101296.25
2023-03-29T09:42:10.451Z,101289.88
2023-03-29T09:44:44.303Z,101293.03
2023-03-29T09:47:23.790Z,101291.66
2023-03-29T09:49:55.333Z,101288.25
2023-03-29T09:52:22.471Z,101292.50
2023-03-29T09:54:49.783Z,101280.03
2023-03-29T09:57:18.044Z,101287.94
2023-03-29T09:59:47.003Z,101279.94
2023-03-29T10:02:14.718Z,101268.19
2023-03-29T10:04:43.325Z,101269.69
2023-03-29T10:07:18.209Z,101266.19
2023-03-29T10:09:48.290Z,101267.91
2023-03-29T10:12:16.959Z,101265.59
2023-03-29T10:14:48.638Z,101266.13
2023-03-29T10:17:23.101Z,101258.84
2023-03-29T10:19:49.905Z,101256.25
2023-03-29T10:22:22.036Z,101248.66
2023-03-29T10:24:53.964Z,101239.41
2023-03-29T10:27:24.456Z,101247.50
2023-03-29T10:29:52.277Z,101244.06
2023-03-29T10:32:34.685Z,101240.53
2023-03-29T10:35:21.631Z,101242.34
2023-03-29T10:37:55.368Z,101239.94
2023-03-29T10:40:30.958Z,101236.88
2023-03-29T10:43:27.171Z,101236.16
2023-03-29T10:45:57.133Z,101221.72
2023-03-29T10:48:29.966Z,101219.81
2023-03-29T10:51:02.316Z,101221.47
2023-03-29T10:53:35.203Z,101216.59
2023-03-29T10:56:30.756Z,101218.41
2023-03-29T10:59:23.473Z,101221.31
2023-03-29T11:02:02.851Z,101207.06
2023-03-29T11:05:00.302Z,101206.00
2023-03-29T11:07:48.809Z,101202.28
2023-03-29T11:10:32.670Z,101196.22
2023-03-29T11:13:06.120Z,101187.09
2023-03-29T11:15:43.953Z,101184.75
2023-03-29T11:18:37.942Z,101194.31
2023-03-29T11:21:11.753Z,101192.97
2023-03-29T11:24:16.995Z,101191.00
2023-03-29T11:26:59.961Z,101181.41
2023-03-29T11:30:12.431Z,101180.22
2023-03-29T11:33:09.481Z,101169.09
2023-03-29T11:35:47.137Z,101172.78
2023-03-29T11:38:20.372Z,101165.84
2023-03-29T11:41:18.848Z,101159.69
2023-03-29T11:43:54.147Z,101157.88
2023-03-29T11:46:30.541Z,101144.94
2023-03-29T11:49:21.633Z,101139.78
2023-03-29T11:51:52.207Z,101149.28
2023-03-29T11:54:51.893Z,101156.78
2023-03-29T11:57:31.174Z,101149.44
2023-03-29T12:00:14.785Z,101146.09
2023-03-29T12:02:55.350Z,101140.63
2023-03-29T12:05:31.684Z,101140.44
2023-03-29T12:08:08.614Z,101139.38
2023-03-29T12:10:42.073Z,101135.25
2023-03-29T12:13:21.149Z,101130.78
2023-03-29T12:15:57.437Z,101136.41
2023-03-29T12:18:33.431Z,101143.56
2023-03-29T12:21:04.852Z,101134.59
2023-03-29T12:23:34.056Z,101134.41
2023-03-29T12:26:23.181Z,101130.38
2023-03-29T12:29:27.638Z,101132.91
2023-03-29T12:32:12.751Z,101131.31
2023-03-29T12:34:59.942Z,101127.34
2023-03-29T12:37:32.365Z,101127.94
2023-03-29T12:40:21.652Z,101125.47
2023-03-29T12:42:54.374Z,101114.28
2023-03-29T12:45:38.163Z,101119.97
2023-03-29T12:48:06.715Z,101120.09
2023-03-29T12:50:46.198Z,101116.41
2023-03-29T12:53:13.170Z,101114.97
2023-03-29T12:55:42.746Z,101108.28
2023-03-29T12:58:40.257Z,101105.19
2023-03-29T13:01:25.160Z,101105.66
2023-03-29T13:04:10.599Z,101105.13
2023-03-29T13:06:47.472Z,101106.84
2023-03-29T13:09:38.068Z,101106.81
2023-03-29T13:12:10.876Z,101101.63
2023-03-29T13:14:46.435Z,101096.69
2023-03-29T13:17:45.219Z,101094.78
2023-03-29T13:20:31.916Z,101101.09
2023-03-29T13:23:05.313Z,101087.75
2023-03-29T13:26:09.853Z,101094.50
2023-03-29T13:29:07.386Z,101094.34
2023-03-29T13:32:07.838Z,101088.09
2023-03-29T13:34:53.577Z,101084.59
2023-03-29T13:37:29.977Z,101074.25
2023-03-29T13:39:57.738Z,101069.28
2023-03-29T13:42:37.758Z,101064.53
2023-03-29T13:45:14.049Z,101053.31
2023-03-29T13:47:54.850Z,101047.56
2023-03-29T13:50:39.046Z,101040.72
2023-03-29T13:53:29.372Z,101040.66
2023-03-29T13:55:59.613Z,101029.19
2023-03-29T13:58:35.895Z,101041.31
2023-03-29T14:01:28.431Z,101041.25
2023-03-29T14:03:57.007Z,101041.38
2023-03-29T14:06:29.416Z,101032.41
2023-03-29T14:08:57.638Z,101033.72
2023-03-29T14:11:30.974Z,101036.47
2023-03-29T14:14:02.953Z,101032.38
2023-03-29T14:16:33.395Z,101030.22
2023-03-29T14:19:13.616Z,101024.44
2023-03-29T14:21:43.741Z,101006.47
2023-03-29T14:24:16.813Z,101014.13
2023-03-29T14:26:47.268Z,101007.38
2023-03-29T14:29:14.838Z,101008.75
2023-03-29T14:31:42.898Z,101006.31
2023-03-29T14:34:16.946Z,101004.38
2023-03-29T14:36:48.925Z,100996.72
2023-03-29T14:39:23.437Z,100994.13
2023-03-29T14:41:53.570Z,100996.91
2023-03-29T14:44:22.909Z,100992.25
2023-03-29T14:46:49.740Z,100984.69
2023-03-29T14:49:19.793Z,100991.88
2023-03-29T14:51:49.298Z,100986.66
2023-03-29T14:54:29.810Z,100996.31
2023-03-29T14:56:58.184Z,100991.63
2023-03-29T14:59:36.735Z,100994.53
2023-03-29T15:02:04.345Z,100990.00
2023-03-29T15:04:37.550Z,100991.53
2023-03-29T15:07:05.445Z,100984.44
2023-03-29T15:09:34.885Z,100987.91
2023-03-29T15:12:04.481Z,100991.28
2023-03-29T15:14:38.253Z,100995.94
2023-03-29T15:17:22.399Z,101003.34
2023-03-29T15:20:25.401Z,100998.25
2023-03-29T15:22:58.918Z,101003.34
2023-03-29T15:25:33.011Z,101006.38
2023-03-29T15:28:02.066Z,101000.03
2023-03-29T15:30:36.250Z,100993.28
2023-03-29T15:33:20.147Z,100995.31
2023-03-29T15:35:51.374Z,100997.56
2023-03-29T15:38:25.431Z,100994.34
2023-03-29T15:41:04.343Z,100992.69
2023-03-29T15:43:33.042Z,100989.84
2023-03-29T15:46:00.330Z,100994.72
2023-03-29T15:48:30.044Z,100987.09
2023-03-29T15:51:00.808Z,100996.28
2023-03-29T15:53:29.993Z,100993.13
2023-03-29T15:56:02.840Z,100999.53
2023-03-29T15:58:32.873Z,100998.84
2023-03-29T16:01:34.354Z,101008.34
2023-03-29T16:04:05.503Z,101010.41
2023-03-29T16:06:34.029Z,100998.19
2023-03-29T16:09:05.274Z,100997.41
2023-03-29T16:11:32.223Z,101002.75
2023-03-29T16:14:00.211Z,101003.69
2023-03-29T16:16:27.438Z,100999.88
2023-03-29T16:18:57.986Z,100999.88
2023-03-29T16:21:27.291Z,101000.72
2023-03-29T16:23:54.285Z,101005.25
2023-03-29T16:26:22.506Z,101000.28
2023-03-29T16:28:50.168Z,101001.97
2023-03-29T16:31:18.805Z,100998.56
2023-03-29T16:33:46.754Z,100997.59
2023-03-29T16:36:15.301Z,100993.59
2023-03-29T16:38:42.469Z,100987.81
2023-03-29T16:41:15.009Z,100990.53
2023-03-29T16:43:43.280Z,100988.72
2023-03-29T16:46:11.381Z,100987.38
2023-03-29T16:48:39.595Z,100988.41
2023-03-29T16:51:07.199Z,100986.06
2023-03-29T16:53:35.926Z,100983.25
2023-03-29T16:56:04.892Z,100982.34
2023-03-29T16:58:32.426Z,100984.34
2023-03-29T17:01:10.970Z,100984.03
2023-03-29T17:03:39.883Z,100979.88
2023-03-29T17:06:08.169Z,100974.63
2023-03-29T17:08:35.429Z,100974.66
2023-03-29T17:11:03.545Z,100966.59
2023-03-29T17:13:34.530Z,100966.91
2023-03-29T17:16:02.645Z,100977.31
2023-03-29T17:18:31.007Z,100971.94
2023-03-29T17:21:00.214Z,100968.72
2023-03-29T17:23:29.440Z,100972.78
2023-03-29T17:25:58.431Z,100972.56
2023-03-29T17:28:27.126Z,100970.09
2023-03-29T17:30:56.017Z,100980.00
2023-03-29T17:33:26.443Z,100970.69
2023-03-29T17:35:53.645Z,100976.97
2023-03-29T17:38:21.662Z,100972.19
2023-03-29T17:40:53.771Z,100974.44
2023-03-29T17:43:21.191Z,100977.47
2023-03-29T17:45:53.478Z,100983.84
2023-03-29T17:48:21.734Z,100984.91
2023-03-29T17:50:49.653Z,100979.81
2023-03-29T17:53:17.671Z,100979.03
2023-03-29T17:55:46.389Z,100980.81
2023-03-29T17:58:15.027Z,100974.72
2023-03-29T18:00:43.950Z,100984.28
2023-03-29T18:03:13.290Z,100972.19
2023-03-29T18:05:42.108Z,100981.72
2023-03-29T18:08:10.906Z,100978.31
2023-03-29T18:10:40.105Z,100993.13
2023-03-29T18:13:13.768Z,100990.47
2023-03-29T18:15:45.121Z,100996.56
2023-03-29T18:18:13.863Z,101005.34
2023-03-29T18:20:45.296Z,101009.72
2023-03-29T18:23:13.007Z,100999.25
2023-03-29T18:25:42.166Z,101009.69
2023-03-29T18:28:11.510Z,101011.50
2023-03-29T18:30:40.095Z,101011.41
2023-03-29T18:33:08.805Z,101006.13
2023-03-29T18:35:37.501Z,101010.53
2023-03-29T18:38:06.671Z,101012.22
2023-03-29T18:40:35.268Z,101009.53
2023-03-29T18:43:03.795Z,101011.41
2023-03-29T18:45:32.401Z,101026.16
2023-03-29T18:48:02.131Z,101011.25
2023-03-29T18:50:29.969Z,101016.53
2023-03-29T18:52:58.007Z,101016.47
2023-03-29T18:55:25.831Z,101025.19
2023-03-29T18:57:53.818Z,101015.63
2023-03-29T19:00:22.955Z,101011.25
2023-03-29T19:02:51.628Z,101008.53
2023-03-29T19:05:20.305Z,101007.72
2023-03-29T19:07:48.245Z,101002.50
2023-03-29T19:10:16.697Z,101009.53
2023-03-29T19:12:44.745Z,101006.00
2023-03-29T19:15:13.032Z,101012.88
2023-03-29T19:17:41.578Z,101007.63
2023-03-29T19:20:10.253Z,101009.28
2023-03-29T19:22:38.630Z,101011.94
2023-03-29T19:25:07.733Z,101008.41
2023-03-29T19:27:36.579Z,101003.19
2023-03-29T19:30:10.940Z,100993.47
2023-03-29T19:32:39.547Z,101004.84
2023-03-29T19:35:09.845Z,101003.03
2023-03-29T19:37:43.023Z,100998.75
2023-03-29T19:40:12.304Z,100997.88
2023-03-29T19:42:41.636Z,100989.09
2023-03-29T19:45:10.836Z,100995.16
2023-03-29T19:47:38.782Z,100992.25
2023-03-29T19:50:07.306Z,100994.78
2023-03-29T19:52:36.048Z,100997.25
2023-03-29T19:55:06.590Z,100997.22
2023-03-29T19:57:34.437Z,100989.31
2023-03-29T20:00:04.183Z,100987.56
2023-03-29T20:02:31.555Z,100990.22
2023-03-29T20:04:59.418Z,100998.06
2023-03-29T20:07:27.187Z,100996.09
2023-03-29T20:09:54.945Z,100981.31
2023-03-29T20:12:23.853Z,100984.03
2023-03-29T20:14:51.944Z,100981.44
2023-03-29T20:17:19.831Z,100983.00
2023-03-29T20:19:48.672Z,100977.81
2023-03-29T20:22:16.486Z,100981.31
2023-03-29T20:24:45.547Z,100980.47
2023-03-29T20:27:15.929Z,100973.38
2023-03-29T20:29:43.669Z,100979.50
2023-03-29T20:32:11.661Z,100982.13
2023-03-29T20:34:39.576Z,100969.16
2023-03-29T20:37:07.636Z,100973.50
2023-03-29T20:39:35.836Z,100968.56
2023-03-29T20:42:04.539Z,100968.19
2023-03-29T20:44:35.240Z,100966.25
2023-03-29T20:47:08.399Z,100970.38
2023-03-29T20:49:38.381Z,100982.72
2023-03-29T20:52:24.470Z,100981.28
2023-03-29T20:54:51.539Z,100987.44
2023-03-29T20:57:21.001Z,100981.75
2023-03-29T20:59:49.500Z,100973.94
2023-03-29T21:02:20.956Z,100976.38
2023-03-29T21:04:52.529Z,100966.59
2023-03-29T21:07:21.999Z,100968.00
2023-03-29T21:09:50.654Z,100971.34
2023-03-29T21:12:20.358Z,100961.19
2023-03-29T21:14:47.679Z,100965.28
2023-03-29T21:17:15.437Z,100971.50
2023-03-29T21:19:43.195Z,100984.38
2023-03-29T21:22:13.821Z,100988.16
2023-03-29T21:24:40.786Z,100975.09
2023-03-29T21:27:08.506Z,100988.41
2023-03-29T21:29:36.920Z,100985.66
2023-03-29T21:32:04.903Z,101000.78
2023-03-29T21:34:31.757Z,100995.84
2023-03-29T21:37:01.608Z,100992.25
2023-03-29T21:39:28.695Z,100996.59
2023-03-29T21:41:56.187Z,100991.59
2023-03-29T21:44:26.328Z,100982.69
2023-03-29T21:46:56.189Z,100978.66
2023-03-29T21:49:23.168Z,100976.31
2023-03-29T21:51:51.564Z,100978.41
2023-03-29T21:54:18.759Z,100989.41
2023-03-29T21:56:47.813Z,100996.13
2023-03-29T21:59:14.753Z,100994.88
2023-03-29T22:01:42.530Z,100988.72
2023-03-29T22:04:11.707Z,100985.03
2023-03-29T22:06:41.942Z,100980.69
2023-03-29T22:09:11.248Z,100971.84
2023-03-29T22:11:38.952Z,100975.94
2023-03-29T22:14:08.048Z,100969.22
2023-03-29T22:16:37.586Z,100964.81
2023-03-29T22:19:06.546Z,100967.41
2023-03-29T22:21:37.336Z,100963.53
2023-03-29T22:24:08.617Z,100971.00
2023-03-29T22:26:38.141Z,100964.19
2023-03-29T22:29:06.116Z,100978.00
2023-03-29T22:31:33.266Z,100975.91
2023-03-29T22:34:02.892Z,100981.84
2023-03-29T22:36:31.242Z,100983.53
2023-03-29T22:39:01.058Z,100981.97
2023-03-29T22:41:28.973Z,100980.84
2023-03-29T22:43:58.893Z,100982.16
2023-03-29T22:46:28.095Z,100981.59
2023-03-29T22:48:57.059Z,100975.41
2023-03-29T22:51:26.311Z,100974.53
2023-03-29T22:53:54.132Z,100981.47
2023-03-29T22:56:22.122Z,100976.97
2023-03-29T22:58:49.254Z,100982.72
2023-03-29T23:01:17.083Z,100988.13
2023-03-29T23:03:44.216Z,100990.00
2023-03-29T23:06:13.930Z,100991.75
2023-03-29T23:08:42.751Z,100990.94
2023-03-29T23:11:11.639Z,100991.63
2023-03-29T23:13:39.908Z,100982.66
2023-03-29T23:16:08.119Z,100982.19
2023-03-29T23:18:38.756Z,100981.09
2023-03-29T23:21:07.637Z,100972.38
2023-03-29T23:23:37.593Z,100982.06
2023-03-29T23:26:05.931Z,100977.63
2023-03-29T23:28:34.879Z,100975.78
2023-03-29T23:31:06.790Z,100978.84
2023-03-29T23:33:36.079Z,100975.28
2023-03-29T23:36:06.389Z,100982.84
2023-03-29T23:38:37.310Z,100984.50
2023-03-29T23:41:08.598Z,100975.44
2023-03-29T23:43:40.703Z,100970.97
2023-03-29T23:46:11.194Z,100973.06
2023-03-29T23:48:39.286Z,100974.00
2023-03-29T23:51:08.319Z,100963.78
2023-03-29T23:53:38.323Z,100966.75
2023-03-29T23:56:05.977Z,100962.72
2023-03-29T23:58:36.930Z,100954.50
